セントジョージズ の空港の天気 - METARとTAF

ポイント・サリンス国際空港 ( TGPY / GND ) - グレナダ セントジョージズ
飛行場実況気象(Metar)
観測時間01/29 03:00 AST (01/29 07:00 UTC)
風向・風速東北東 6m/s
視程10km以上
天気現象
少しの雲 雲底高度 580m
全天の4割程度の雲 雲底高度 1070m
気温24℃
湿度83%
気圧1011hPa
METARTGPY 290700Z 07011KT 9999 FEW019 SCT035 24/21 Q1011 NOSIG
過去の天気等 Google飛行場航空写真 Wunderground天気予報

過去48時間のMETAR

飛行場予報(TAF)
発表時間: 1/29 00:00 AST (1/29 04:00 UTC)
予報対象時間: 29日2時 AST ~ 30日2時 AST
風向・風速東北東 3m/s
視程10km以上
全天の4割程度の雲 雲底高度 550m
29日9時 AST ~ 29日11時 AST に徐々に
風向・風速東 7m/s
少しの雲 雲底高度 610m
TGPY 290400Z 2906/3006 07006KT 9999 SCT018
BECMG 2913/2915 08014KT FEW020